sensor_id;sensor_type;location;lat;lon;timestamp;P1;durP1;ratioP1;P2;durP2;ratioP2
67839;SDS011;54636;51.684;5.142;2023-04-25T00:02:02;6.78;;;2.72;;
67839;SDS011;54636;51.684;5.142;2023-04-25T00:04:28;12.38;;;2.88;;
67839;SDS011;54636;51.684;5.142;2023-04-25T00:06:54;16.00;;;3.50;;
67839;SDS011;54636;51.684;5.142;2023-04-25T00:09:20;6.47;;;2.97;;
67839;SDS011;54636;51.684;5.142;2023-04-25T00:11:47;13.40;;;3.45;;
67839;SDS011;54636;51.684;5.142;2023-04-25T00:14:12;13.30;;;3.22;;
67839;SDS011;54636;51.684;5.142;2023-04-25T00:16:37;13.45;;;3.63;;
67839;SDS011;54636;51.684;5.142;2023-04-25T00:19:04;14.02;;;3.30;;
67839;SDS011;54636;51.684;5.142;2023-04-25T00:21:29;9.32;;;3.00;;
67839;SDS011;54636;51.684;5.142;2023-04-25T00:23:56;8.80;;;2.97;;
67839;SDS011;54636;51.684;5.142;2023-04-25T00:26:22;12.35;;;4.25;;
67839;SDS011;54636;51.684;5.142;2023-04-25T00:28:47;12.45;;;2.60;;
67839;SDS011;54636;51.684;5.142;2023-04-25T00:31:13;9.38;;;2.97;;
67839;SDS011;54636;51.684;5.142;2023-04-25T00:33:39;10.15;;;3.15;;
67839;SDS011;54636;51.684;5.142;2023-04-25T00:36:04;11.85;;;3.20;;
67839;SDS011;54636;51.684;5.142;2023-04-25T00:38:30;10.63;;;3.33;;
67839;SDS011;54636;51.684;5.142;2023-04-25T00:40:56;11.50;;;2.95;;
67839;SDS011;54636;51.684;5.142;2023-04-25T00:43:22;14.77;;;3.75;;
67839;SDS011;54636;51.684;5.142;2023-04-25T00:45:51;11.18;;;3.55;;
67839;SDS011;54636;51.684;5.142;2023-04-25T00:48:17;14.85;;;4.22;;
67839;SDS011;54636;51.684;5.142;2023-04-25T00:50:44;12.27;;;3.30;;
67839;SDS011;54636;51.684;5.142;2023-04-25T00:53:20;9.77;;;3.30;;
67839;SDS011;54636;51.684;5.142;2023-04-25T00:55:46;18.10;;;3.90;;
67839;SDS011;54636;51.684;5.142;2023-04-25T00:58:11;9.35;;;3.70;;
67839;SDS011;54636;51.684;5.142;2023-04-25T01:00:37;15.95;;;4.18;;
67839;SDS011;54636;51.684;5.142;2023-04-25T01:03:03;13.15;;;3.75;;
67839;SDS011;54636;51.684;5.142;2023-04-25T01:05:28;11.35;;;3.10;;
67839;SDS011;54636;51.684;5.142;2023-04-25T01:07:54;11.35;;;3.47;;
67839;SDS011;54636;51.684;5.142;2023-04-25T01:10:20;10.18;;;4.05;;
67839;SDS011;54636;51.684;5.142;2023-04-25T01:12:45;11.02;;;4.13;;
67839;SDS011;54636;51.684;5.142;2023-04-25T01:15:11;11.45;;;3.22;;
67839;SDS011;54636;51.684;5.142;2023-04-25T01:17:37;18.75;;;4.07;;
67839;SDS011;54636;51.684;5.142;2023-04-25T01:20:03;15.35;;;4.18;;
67839;SDS011;54636;51.684;5.142;2023-04-25T01:22:30;20.48;;;4.72;;
67839;SDS011;54636;51.684;5.142;2023-04-25T01:24:55;17.67;;;3.45;;
67839;SDS011;54636;51.684;5.142;2023-04-25T01:27:21;16.98;;;4.32;;
67839;SDS011;54636;51.684;5.142;2023-04-25T01:29:47;15.55;;;4.07;;
67839;SDS011;54636;51.684;5.142;2023-04-25T01:32:14;11.38;;;4.03;;
67839;SDS011;54636;51.684;5.142;2023-04-25T01:34:40;19.83;;;4.55;;
67839;SDS011;54636;51.684;5.142;2023-04-25T01:37:05;23.50;;;4.22;;
67839;SDS011;54636;51.684;5.142;2023-04-25T01:39:31;16.15;;;3.15;;
67839;SDS011;54636;51.684;5.142;2023-04-25T01:41:57;19.83;;;4.40;;
67839;SDS011;54636;51.684;5.142;2023-04-25T01:44:23;22.48;;;4.13;;
67839;SDS011;54636;51.684;5.142;2023-04-25T01:46:49;13.07;;;3.78;;
67839;SDS011;54636;51.684;5.142;2023-04-25T01:49:14;21.42;;;6.03;;
67839;SDS011;54636;51.684;5.142;2023-04-25T01:51:40;23.15;;;4.65;;
67839;SDS011;54636;51.684;5.142;2023-04-25T01:54:05;22.23;;;4.35;;
67839;SDS011;54636;51.684;5.142;2023-04-25T01:56:31;31.13;;;5.18;;
67839;SDS011;54636;51.684;5.142;2023-04-25T01:58:57;17.70;;;4.43;;
67839;SDS011;54636;51.684;5.142;2023-04-25T02:01:23;21.35;;;4.03;;
67839;SDS011;54636;51.684;5.142;2023-04-25T02:03:48;13.52;;;3.85;;
67839;SDS011;54636;51.684;5.142;2023-04-25T02:06:14;11.52;;;3.72;;
67839;SDS011;54636;51.684;5.142;2023-04-25T02:08:39;20.02;;;3.97;;
67839;SDS011;54636;51.684;5.142;2023-04-25T02:11:05;24.20;;;5.15;;
67839;SDS011;54636;51.684;5.142;2023-04-25T02:13:30;19.75;;;4.05;;
67839;SDS011;54636;51.684;5.142;2023-04-25T02:15:55;15.27;;;3.88;;
67839;SDS011;54636;51.684;5.142;2023-04-25T02:18:22;18.50;;;4.10;;
67839;SDS011;54636;51.684;5.142;2023-04-25T02:20:47;19.25;;;4.03;;
67839;SDS011;54636;51.684;5.142;2023-04-25T02:23:12;20.65;;;4.00;;
67839;SDS011;54636;51.684;5.142;2023-04-25T02:25:40;11.48;;;3.70;;
67839;SDS011;54636;51.684;5.142;2023-04-25T02:28:05;18.33;;;3.92;;
67839;SDS011;54636;51.684;5.142;2023-04-25T02:30:31;11.05;;;3.75;;
67839;SDS011;54636;51.684;5.142;2023-04-25T02:32:56;14.95;;;4.07;;
67839;SDS011;54636;51.684;5.142;2023-04-25T02:35:22;16.15;;;3.75;;
67839;SDS011;54636;51.684;5.142;2023-04-25T02:37:47;14.15;;;3.53;;
67839;SDS011;54636;51.684;5.142;2023-04-25T02:40:12;21.33;;;4.25;;
67839;SDS011;54636;51.684;5.142;2023-04-25T02:42:38;21.17;;;4.57;;
67839;SDS011;54636;51.684;5.142;2023-04-25T02:45:03;12.13;;;3.78;;
67839;SDS011;54636;51.684;5.142;2023-04-25T02:47:29;15.27;;;4.10;;
67839;SDS011;54636;51.684;5.142;2023-04-25T02:49:55;12.93;;;3.95;;
67839;SDS011;54636;51.684;5.142;2023-04-25T02:52:20;27.42;;;4.65;;
67839;SDS011;54636;51.684;5.142;2023-04-25T02:54:46;16.85;;;4.25;;
67839;SDS011;54636;51.684;5.142;2023-04-25T02:57:11;15.23;;;3.60;;
67839;SDS011;54636;51.684;5.142;2023-04-25T02:59:37;22.17;;;4.25;;
67839;SDS011;54636;51.684;5.142;2023-04-25T03:02:02;13.57;;;3.67;;
67839;SDS011;54636;51.684;5.142;2023-04-25T03:04:27;16.85;;;3.95;;
67839;SDS011;54636;51.684;5.142;2023-04-25T03:06:53;19.05;;;3.88;;
67839;SDS011;54636;51.684;5.142;2023-04-25T03:09:18;17.63;;;3.80;;
67839;SDS011;54636;51.684;5.142;2023-04-25T03:11:44;18.65;;;4.00;;
67839;SDS011;54636;51.684;5.142;2023-04-25T03:14:10;13.23;;;4.13;;
67839;SDS011;54636;51.684;5.142;2023-04-25T03:16:36;19.67;;;3.90;;
67839;SDS011;54636;51.684;5.142;2023-04-25T03:19:02;16.67;;;4.07;;
67839;SDS011;54636;51.684;5.142;2023-04-25T03:21:28;20.25;;;5.57;;
67839;SDS011;54636;51.684;5.142;2023-04-25T03:23:54;14.82;;;4.85;;
67839;SDS011;54636;51.684;5.142;2023-04-25T03:26:19;9.90;;;3.60;;
67839;SDS011;54636;51.684;5.142;2023-04-25T03:28:45;25.77;;;5.00;;
67839;SDS011;54636;51.684;5.142;2023-04-25T03:31:10;20.45;;;4.40;;
67839;SDS011;54636;51.684;5.142;2023-04-25T03:33:36;20.20;;;4.07;;
67839;SDS011;54636;51.684;5.142;2023-04-25T03:36:01;19.63;;;4.60;;
67839;SDS011;54636;51.684;5.142;2023-04-25T03:38:27;20.98;;;4.75;;
67839;SDS011;54636;51.684;5.142;2023-04-25T03:40:52;14.23;;;4.25;;
67839;SDS011;54636;51.684;5.142;2023-04-25T03:43:18;14.48;;;3.38;;
67839;SDS011;54636;51.684;5.142;2023-04-25T03:45:44;13.25;;;3.92;;
67839;SDS011;54636;51.684;5.142;2023-04-25T03:48:11;15.50;;;3.63;;
67839;SDS011;54636;51.684;5.142;2023-04-25T03:50:36;9.77;;;3.28;;
67839;SDS011;54636;51.684;5.142;2023-04-25T03:53:02;9.52;;;3.35;;
67839;SDS011;54636;51.684;5.142;2023-04-25T03:55:27;20.73;;;4.30;;
67839;SDS011;54636;51.684;5.142;2023-04-25T03:57:52;17.83;;;4.30;;
67839;SDS011;54636;51.684;5.142;2023-04-25T04:00:18;12.32;;;3.80;;
67839;SDS011;54636;51.684;5.142;2023-04-25T04:02:43;14.30;;;3.58;;
67839;SDS011;54636;51.684;5.142;2023-04-25T04:05:08;15.15;;;3.47;;
67839;SDS011;54636;51.684;5.142;2023-04-25T04:07:34;18.10;;;3.47;;
67839;SDS011;54636;51.684;5.142;2023-04-25T04:12:30;12.77;;;3.50;;
67839;SDS011;54636;51.684;5.142;2023-04-25T04:14:55;19.15;;;4.03;;
67839;SDS011;54636;51.684;5.142;2023-04-25T04:17:21;16.60;;;3.55;;
67839;SDS011;54636;51.684;5.142;2023-04-25T04:19:46;16.70;;;3.92;;
67839;SDS011;54636;51.684;5.142;2023-04-25T04:22:11;12.43;;;4.97;;
67839;SDS011;54636;51.684;5.142;2023-04-25T04:24:37;15.88;;;3.63;;
67839;SDS011;54636;51.684;5.142;2023-04-25T04:27:02;16.77;;;3.72;;
67839;SDS011;54636;51.684;5.142;2023-04-25T04:29:28;20.30;;;4.32;;
67839;SDS011;54636;51.684;5.142;2023-04-25T04:31:53;17.65;;;4.38;;
67839;SDS011;54636;51.684;5.142;2023-04-25T04:34:19;20.30;;;4.70;;
67839;SDS011;54636;51.684;5.142;2023-04-25T04:36:44;18.38;;;4.30;;
67839;SDS011;54636;51.684;5.142;2023-04-25T04:39:11;16.45;;;4.47;;
67839;SDS011;54636;51.684;5.142;2023-04-25T04:41:39;20.10;;;4.68;;
67839;SDS011;54636;51.684;5.142;2023-04-25T04:44:05;13.02;;;4.85;;
67839;SDS011;54636;51.684;5.142;2023-04-25T04:46:31;15.40;;;4.45;;
67839;SDS011;54636;51.684;5.142;2023-04-25T04:49:03;12.90;;;4.38;;
67839;SDS011;54636;51.684;5.142;2023-04-25T04:51:31;12.23;;;4.73;;
67839;SDS011;54636;51.684;5.142;2023-04-25T04:53:57;18.85;;;5.10;;
67839;SDS011;54636;51.684;5.142;2023-04-25T04:56:27;20.65;;;4.55;;
67839;SDS011;54636;51.684;5.142;2023-04-25T04:58:53;15.07;;;3.90;;
67839;SDS011;54636;51.684;5.142;2023-04-25T05:01:18;21.58;;;4.32;;
67839;SDS011;54636;51.684;5.142;2023-04-25T05:03:43;11.43;;;4.85;;
67839;SDS011;54636;51.684;5.142;2023-04-25T05:06:09;14.68;;;4.50;;
67839;SDS011;54636;51.684;5.142;2023-04-25T05:08:34;12.43;;;4.07;;
67839;SDS011;54636;51.684;5.142;2023-04-25T05:11:00;12.35;;;3.75;;
67839;SDS011;54636;51.684;5.142;2023-04-25T05:13:25;9.60;;;3.72;;
67839;SDS011;54636;51.684;5.142;2023-04-25T05:15:51;12.98;;;3.90;;
67839;SDS011;54636;51.684;5.142;2023-04-25T05:18:16;9.88;;;3.95;;
67839;SDS011;54636;51.684;5.142;2023-04-25T05:20:41;17.00;;;3.83;;
67839;SDS011;54636;51.684;5.142;2023-04-25T05:23:07;10.18;;;3.70;;
67839;SDS011;54636;51.684;5.142;2023-04-25T05:25:32;18.35;;;3.60;;
67839;SDS011;54636;51.684;5.142;2023-04-25T05:27:58;16.50;;;4.05;;
67839;SDS011;54636;51.684;5.142;2023-04-25T05:30:23;16.52;;;4.15;;
67839;SDS011;54636;51.684;5.142;2023-04-25T05:32:49;12.45;;;3.00;;
67839;SDS011;54636;51.684;5.142;2023-04-25T05:35:15;15.10;;;3.45;;
67839;SDS011;54636;51.684;5.142;2023-04-25T05:37:43;8.65;;;2.63;;
67839;SDS011;54636;51.684;5.142;2023-04-25T05:40:08;12.85;;;3.03;;
67839;SDS011;54636;51.684;5.142;2023-04-25T05:42:34;10.23;;;2.92;;
67839;SDS011;54636;51.684;5.142;2023-04-25T05:44:59;8.65;;;2.33;;
67839;SDS011;54636;51.684;5.142;2023-04-25T05:47:25;9.98;;;2.95;;
67839;SDS011;54636;51.684;5.142;2023-04-25T05:49:51;4.82;;;2.15;;
67839;SDS011;54636;51.684;5.142;2023-04-25T05:52:16;8.75;;;3.00;;
67839;SDS011;54636;51.684;5.142;2023-04-25T05:54:42;17.42;;;3.35;;
67839;SDS011;54636;51.684;5.142;2023-04-25T05:57:07;12.70;;;2.10;;
67839;SDS011;54636;51.684;5.142;2023-04-25T05:59:33;10.40;;;2.17;;
67839;SDS011;54636;51.684;5.142;2023-04-25T06:01:58;9.45;;;2.40;;
67839;SDS011;54636;51.684;5.142;2023-04-25T06:04:24;8.20;;;2.15;;
67839;SDS011;54636;51.684;5.142;2023-04-25T06:06:50;5.95;;;2.13;;
67839;SDS011;54636;51.684;5.142;2023-04-25T06:09:15;5.78;;;2.22;;
67839;SDS011;54636;51.684;5.142;2023-04-25T06:11:41;8.30;;;1.85;;
67839;SDS011;54636;51.684;5.142;2023-04-25T06:14:06;12.38;;;2.55;;
67839;SDS011;54636;51.684;5.142;2023-04-25T06:16:32;4.88;;;2.88;;
67839;SDS011;54636;51.684;5.142;2023-04-25T06:18:58;11.52;;;2.72;;
67839;SDS011;54636;51.684;5.142;2023-04-25T06:21:23;5.22;;;1.77;;
67839;SDS011;54636;51.684;5.142;2023-04-25T06:23:48;7.47;;;1.77;;
67839;SDS011;54636;51.684;5.142;2023-04-25T06:26:14;4.90;;;1.92;;
67839;SDS011;54636;51.684;5.142;2023-04-25T06:28:39;9.50;;;3.05;;
67839;SDS011;54636;51.684;5.142;2023-04-25T06:31:05;5.50;;;2.10;;
67839;SDS011;54636;51.684;5.142;2023-04-25T06:33:30;6.78;;;1.95;;
67839;SDS011;54636;51.684;5.142;2023-04-25T06:35:56;7.72;;;1.65;;
67839;SDS011;54636;51.684;5.142;2023-04-25T06:38:21;8.55;;;2.00;;
67839;SDS011;54636;51.684;5.142;2023-04-25T06:40:46;2.88;;;1.52;;
67839;SDS011;54636;51.684;5.142;2023-04-25T06:43:12;10.50;;;2.20;;
67839;SDS011;54636;51.684;5.142;2023-04-25T06:45:38;9.75;;;2.15;;
67839;SDS011;54636;51.684;5.142;2023-04-25T06:48:03;8.77;;;2.00;;
67839;SDS011;54636;51.684;5.142;2023-04-25T06:50:29;5.03;;;1.73;;
67839;SDS011;54636;51.684;5.142;2023-04-25T06:52:54;5.65;;;1.55;;
67839;SDS011;54636;51.684;5.142;2023-04-25T06:55:19;4.50;;;1.77;;
67839;SDS011;54636;51.684;5.142;2023-04-25T06:57:45;8.15;;;2.03;;
67839;SDS011;54636;51.684;5.142;2023-04-25T07:00:10;6.05;;;1.92;;
67839;SDS011;54636;51.684;5.142;2023-04-25T07:02:36;6.68;;;2.95;;
67839;SDS011;54636;51.684;5.142;2023-04-25T07:05:02;4.88;;;1.30;;
67839;SDS011;54636;51.684;5.142;2023-04-25T07:07:29;4.25;;;1.58;;
67839;SDS011;54636;51.684;5.142;2023-04-25T07:09:55;3.17;;;1.45;;
67839;SDS011;54636;51.684;5.142;2023-04-25T07:12:21;7.55;;;1.48;;
67839;SDS011;54636;51.684;5.142;2023-04-25T07:14:46;6.05;;;1.73;;
67839;SDS011;54636;51.684;5.142;2023-04-25T07:17:12;10.15;;;2.10;;
67839;SDS011;54636;51.684;5.142;2023-04-25T07:19:37;5.18;;;1.33;;
67839;SDS011;54636;51.684;5.142;2023-04-25T07:22:04;3.65;;;1.17;;
67839;SDS011;54636;51.684;5.142;2023-04-25T07:24:30;8.95;;;1.85;;
67839;SDS011;54636;51.684;5.142;2023-04-25T07:26:56;8.13;;;2.13;;
67839;SDS011;54636;51.684;5.142;2023-04-25T07:29:21;5.95;;;1.45;;
67839;SDS011;54636;51.684;5.142;2023-04-25T07:31:50;8.77;;;1.63;;
67839;SDS011;54636;51.684;5.142;2023-04-25T07:34:16;7.22;;;1.80;;
67839;SDS011;54636;51.684;5.142;2023-04-25T07:36:41;9.88;;;1.60;;
67839;SDS011;54636;51.684;5.142;2023-04-25T07:39:06;5.80;;;1.25;;
67839;SDS011;54636;51.684;5.142;2023-04-25T07:41:34;6.93;;;1.77;;
67839;SDS011;54636;51.684;5.142;2023-04-25T07:43:59;5.70;;;1.73;;
67839;SDS011;54636;51.684;5.142;2023-04-25T07:46:25;9.43;;;1.52;;
67839;SDS011;54636;51.684;5.142;2023-04-25T07:48:50;7.90;;;1.90;;
67839;SDS011;54636;51.684;5.142;2023-04-25T07:51:16;6.18;;;1.77;;
67839;SDS011;54636;51.684;5.142;2023-04-25T07:53:45;11.38;;;1.77;;
67839;SDS011;54636;51.684;5.142;2023-04-25T07:56:11;8.02;;;2.17;;
67839;SDS011;54636;51.684;5.142;2023-04-25T07:58:36;4.53;;;1.83;;
67839;SDS011;54636;51.684;5.142;2023-04-25T08:01:02;4.05;;;1.25;;
67839;SDS011;54636;51.684;5.142;2023-04-25T08:03:27;7.10;;;1.58;;
67839;SDS011;54636;51.684;5.142;2023-04-25T08:05:53;11.13;;;1.70;;
67839;SDS011;54636;51.684;5.142;2023-04-25T08:08:18;4.07;;;1.50;;
67839;SDS011;54636;51.684;5.142;2023-04-25T08:10:43;2.72;;;1.30;;
67839;SDS011;54636;51.684;5.142;2023-04-25T08:13:09;4.85;;;1.80;;
67839;SDS011;54636;51.684;5.142;2023-04-25T08:15:34;9.60;;;1.80;;
67839;SDS011;54636;51.684;5.142;2023-04-25T08:17:59;7.85;;;1.60;;
67839;SDS011;54636;51.684;5.142;2023-04-25T08:20:25;10.10;;;1.63;;
67839;SDS011;54636;51.684;5.142;2023-04-25T08:22:50;8.80;;;1.38;;
67839;SDS011;54636;51.684;5.142;2023-04-25T08:25:16;5.38;;;1.40;;
67839;SDS011;54636;51.684;5.142;2023-04-25T08:27:41;7.80;;;1.38;;
67839;SDS011;54636;51.684;5.142;2023-04-25T08:30:08;4.05;;;1.60;;
67839;SDS011;54636;51.684;5.142;2023-04-25T08:32:33;13.85;;;2.17;;
67839;SDS011;54636;51.684;5.142;2023-04-25T08:34:59;7.63;;;1.77;;
67839;SDS011;54636;51.684;5.142;2023-04-25T08:37:24;7.57;;;1.83;;
67839;SDS011;54636;51.684;5.142;2023-04-25T08:39:51;8.88;;;2.50;;
67839;SDS011;54636;51.684;5.142;2023-04-25T08:42:21;11.05;;;1.50;;
67839;SDS011;54636;51.684;5.142;2023-04-25T08:44:48;6.03;;;1.85;;
67839;SDS011;54636;51.684;5.142;2023-04-25T08:47:13;6.85;;;1.75;;
67839;SDS011;54636;51.684;5.142;2023-04-25T08:49:39;9.60;;;2.42;;
67839;SDS011;54636;51.684;5.142;2023-04-25T08:52:08;9.73;;;1.90;;
67839;SDS011;54636;51.684;5.142;2023-04-25T08:54:35;9.43;;;2.17;;
67839;SDS011;54636;51.684;5.142;2023-04-25T08:57:02;6.32;;;2.35;;
67839;SDS011;54636;51.684;5.142;2023-04-25T08:59:29;6.32;;;1.55;;
67839;SDS011;54636;51.684;5.142;2023-04-25T09:01:55;6.90;;;1.88;;
67839;SDS011;54636;51.684;5.142;2023-04-25T09:04:21;9.32;;;2.45;;
67839;SDS011;54636;51.684;5.142;2023-04-25T09:06:46;2.17;;;1.30;;
67839;SDS011;54636;51.684;5.142;2023-04-25T09:09:12;4.30;;;1.98;;
67839;SDS011;54636;51.684;5.142;2023-04-25T09:11:38;8.55;;;1.85;;
67839;SDS011;54636;51.684;5.142;2023-04-25T09:14:20;9.80;;;1.83;;
67839;SDS011;54636;51.684;5.142;2023-04-25T09:19:25;7.85;;;1.98;;
67839;SDS011;54636;51.684;5.142;2023-04-25T09:21:54;6.43;;;1.95;;
67839;SDS011;54636;51.684;5.142;2023-04-25T09:24:33;6.00;;;1.70;;
67839;SDS011;54636;51.684;5.142;2023-04-25T09:26:58;8.70;;;1.58;;
67839;SDS011;54636;51.684;5.142;2023-04-25T09:29:34;7.65;;;2.15;;
67839;SDS011;54636;51.684;5.142;2023-04-25T09:34:41;5.25;;;1.58;;
67839;SDS011;54636;51.684;5.142;2023-04-25T09:37:11;11.27;;;2.20;;
67839;SDS011;54636;51.684;5.142;2023-04-25T09:39:38;7.53;;;1.45;;
67839;SDS011;54636;51.684;5.142;2023-04-25T09:42:04;3.67;;;1.20;;
67839;SDS011;54636;51.684;5.142;2023-04-25T09:44:30;6.80;;;1.88;;
67839;SDS011;54636;51.684;5.142;2023-04-25T09:46:56;4.80;;;1.90;;
67839;SDS011;54636;51.684;5.142;2023-04-25T09:49:22;3.20;;;1.08;;
67839;SDS011;54636;51.684;5.142;2023-04-25T09:51:54;4.72;;;1.10;;
67839;SDS011;54636;51.684;5.142;2023-04-25T09:54:23;6.45;;;1.48;;
67839;SDS011;54636;51.684;5.142;2023-04-25T09:56:49;3.05;;;1.20;;
67839;SDS011;54636;51.684;5.142;2023-04-25T09:59:19;6.50;;;1.63;;
67839;SDS011;54636;51.684;5.142;2023-04-25T10:04:13;4.57;;;1.00;;
67839;SDS011;54636;51.684;5.142;2023-04-25T10:06:44;7.32;;;1.60;;
67839;SDS011;54636;51.684;5.142;2023-04-25T10:09:11;6.50;;;1.55;;
67839;SDS011;54636;51.684;5.142;2023-04-25T10:11:37;7.40;;;1.52;;
67839;SDS011;54636;51.684;5.142;2023-04-25T10:14:04;6.03;;;1.52;;
67839;SDS011;54636;51.684;5.142;2023-04-25T10:16:31;8.43;;;2.33;;
67839;SDS011;54636;51.684;5.142;2023-04-25T10:18:57;6.47;;;1.73;;
67839;SDS011;54636;51.684;5.142;2023-04-25T10:21:22;4.80;;;1.38;;
67839;SDS011;54636;51.684;5.142;2023-04-25T10:23:49;3.45;;;1.48;;
67839;SDS011;54636;51.684;5.142;2023-04-25T10:26:15;5.88;;;1.20;;
67839;SDS011;54636;51.684;5.142;2023-04-25T10:29:00;5.95;;;1.77;;
67839;SDS011;54636;51.684;5.142;2023-04-25T10:31:27;5.60;;;1.45;;
67839;SDS011;54636;51.684;5.142;2023-04-25T10:33:55;2.80;;;0.95;;
67839;SDS011;54636;51.684;5.142;2023-04-25T10:36:22;3.35;;;1.00;;
67839;SDS011;54636;51.684;5.142;2023-04-25T10:38:49;3.42;;;0.70;;
67839;SDS011;54636;51.684;5.142;2023-04-25T10:41:20;4.32;;;1.15;;
67839;SDS011;54636;51.684;5.142;2023-04-25T10:43:48;1.65;;;0.77;;
67839;SDS011;54636;51.684;5.142;2023-04-25T10:46:19;5.00;;;1.02;;
67839;SDS011;54636;51.684;5.142;2023-04-25T10:48:50;3.92;;;1.27;;
67839;SDS011;54636;51.684;5.142;2023-04-25T10:53:48;7.15;;;1.02;;
67839;SDS011;54636;51.684;5.142;2023-04-25T10:58:47;6.53;;;1.55;;
67839;SDS011;54636;51.684;5.142;2023-04-25T11:01:15;4.57;;;1.60;;
67839;SDS011;54636;51.684;5.142;2023-04-25T11:03:45;3.53;;;1.08;;
67839;SDS011;54636;51.684;5.142;2023-04-25T11:06:15;7.13;;;1.08;;
67839;SDS011;54636;51.684;5.142;2023-04-25T11:08:50;3.78;;;1.52;;
67839;SDS011;54636;51.684;5.142;2023-04-25T11:11:17;4.68;;;1.20;;
67839;SDS011;54636;51.684;5.142;2023-04-25T11:13:43;3.45;;;1.23;;
67839;SDS011;54636;51.684;5.142;2023-04-25T11:16:09;2.75;;;1.23;;
67839;SDS011;54636;51.684;5.142;2023-04-25T11:18:35;4.07;;;1.13;;
67839;SDS011;54636;51.684;5.142;2023-04-25T11:21:01;5.93;;;1.17;;
67839;SDS011;54636;51.684;5.142;2023-04-25T11:23:27;3.88;;;1.00;;
67839;SDS011;54636;51.684;5.142;2023-04-25T11:25:55;2.38;;;1.00;;
67839;SDS011;54636;51.684;5.142;2023-04-25T11:28:20;3.10;;;1.08;;
67839;SDS011;54636;51.684;5.142;2023-04-25T11:30:49;2.28;;;0.82;;
67839;SDS011;54636;51.684;5.142;2023-04-25T11:33:16;3.53;;;0.90;;
67839;SDS011;54636;51.684;5.142;2023-04-25T11:35:42;4.28;;;1.02;;
67839;SDS011;54636;51.684;5.142;2023-04-25T11:38:07;5.82;;;1.05;;
67839;SDS011;54636;51.684;5.142;2023-04-25T11:40:33;10.55;;;1.10;;
67839;SDS011;54636;51.684;5.142;2023-04-25T11:43:01;1.60;;;0.90;;
67839;SDS011;54636;51.684;5.142;2023-04-25T11:45:26;1.70;;;0.80;;
67839;SDS011;54636;51.684;5.142;2023-04-25T11:47:54;3.05;;;1.40;;
67839;SDS011;54636;51.684;5.142;2023-04-25T11:50:19;3.38;;;1.08;;
67839;SDS011;54636;51.684;5.142;2023-04-25T11:52:45;2.83;;;1.05;;
67839;SDS011;54636;51.684;5.142;2023-04-25T11:57:42;4.80;;;1.05;;
67839;SDS011;54636;51.684;5.142;2023-04-25T12:02:43;7.07;;;1.30;;
67839;SDS011;54636;51.684;5.142;2023-04-25T12:05:10;4.45;;;1.35;;
67839;SDS011;54636;51.684;5.142;2023-04-25T12:07:36;4.75;;;0.90;;
67839;SDS011;54636;51.684;5.142;2023-04-25T12:10:09;3.58;;;1.30;;
67839;SDS011;54636;51.684;5.142;2023-04-25T12:12:36;3.15;;;1.25;;
67839;SDS011;54636;51.684;5.142;2023-04-25T12:15:11;5.82;;;1.00;;
67839;SDS011;54636;51.684;5.142;2023-04-25T12:17:47;0.90;;;0.50;;
67839;SDS011;54636;51.684;5.142;2023-04-25T12:20:14;6.95;;;1.25;;
67839;SDS011;54636;51.684;5.142;2023-04-25T12:22:41;1.80;;;0.95;;
67839;SDS011;54636;51.684;5.142;2023-04-25T12:25:10;2.30;;;0.95;;
67839;SDS011;54636;51.684;5.142;2023-04-25T12:27:39;3.38;;;1.00;;
67839;SDS011;54636;51.684;5.142;2023-04-25T12:30:09;7.88;;;1.50;;
67839;SDS011;54636;51.684;5.142;2023-04-25T12:32:35;6.50;;;1.25;;
67839;SDS011;54636;51.684;5.142;2023-04-25T12:35:01;7.30;;;1.73;;
67839;SDS011;54636;51.684;5.142;2023-04-25T12:37:28;4.15;;;0.88;;
67839;SDS011;54636;51.684;5.142;2023-04-25T12:39:53;3.63;;;0.90;;
67839;SDS011;54636;51.684;5.142;2023-04-25T12:42:19;4.13;;;1.10;;
67839;SDS011;54636;51.684;5.142;2023-04-25T12:44:44;6.40;;;1.27;;
67839;SDS011;54636;51.684;5.142;2023-04-25T12:47:11;6.80;;;1.70;;
67839;SDS011;54636;51.684;5.142;2023-04-25T12:49:36;5.15;;;1.35;;
67839;SDS011;54636;51.684;5.142;2023-04-25T12:52:02;6.65;;;1.65;;
67839;SDS011;54636;51.684;5.142;2023-04-25T12:54:27;6.03;;;1.55;;
67839;SDS011;54636;51.684;5.142;2023-04-25T12:56:53;5.85;;;1.33;;
67839;SDS011;54636;51.684;5.142;2023-04-25T12:59:19;8.50;;;1.80;;
67839;SDS011;54636;51.684;5.142;2023-04-25T13:01:46;3.40;;;1.60;;
67839;SDS011;54636;51.684;5.142;2023-04-25T13:04:11;6.43;;;1.33;;
67839;SDS011;54636;51.684;5.142;2023-04-25T13:06:37;6.43;;;1.38;;
67839;SDS011;54636;51.684;5.142;2023-04-25T13:09:03;32.28;;;3.50;;
67839;SDS011;54636;51.684;5.142;2023-04-25T13:11:28;8.20;;;1.50;;
67839;SDS011;54636;51.684;5.142;2023-04-25T13:13:53;3.72;;;1.00;;
67839;SDS011;54636;51.684;5.142;2023-04-25T13:16:20;3.58;;;0.90;;
67839;SDS011;54636;51.684;5.142;2023-04-25T13:18:48;6.55;;;1.42;;
67839;SDS011;54636;51.684;5.142;2023-04-25T13:21:13;7.82;;;1.15;;
67839;SDS011;54636;51.684;5.142;2023-04-25T13:23:39;3.55;;;1.30;;
67839;SDS011;54636;51.684;5.142;2023-04-25T13:26:06;4.57;;;1.00;;
67839;SDS011;54636;51.684;5.142;2023-04-25T13:28:32;4.18;;;1.70;;
67839;SDS011;54636;51.684;5.142;2023-04-25T13:30:57;5.13;;;1.50;;
67839;SDS011;54636;51.684;5.142;2023-04-25T13:33:23;5.70;;;1.67;;
67839;SDS011;54636;51.684;5.142;2023-04-25T13:35:49;5.03;;;1.40;;
67839;SDS011;54636;51.684;5.142;2023-04-25T13:38:22;3.35;;;1.10;;
67839;SDS011;54636;51.684;5.142;2023-04-25T13:40:49;5.05;;;1.50;;
67839;SDS011;54636;51.684;5.142;2023-04-25T13:43:15;4.57;;;1.17;;
67839;SDS011;54636;51.684;5.142;2023-04-25T13:45:41;2.45;;;1.20;;
67839;SDS011;54636;51.684;5.142;2023-04-25T13:48:06;3.33;;;1.10;;
67839;SDS011;54636;51.684;5.142;2023-04-25T13:50:32;5.43;;;1.30;;
67839;SDS011;54636;51.684;5.142;2023-04-25T13:52:57;3.22;;;0.80;;
67839;SDS011;54636;51.684;5.142;2023-04-25T13:55:23;1.67;;;0.80;;
67839;SDS011;54636;51.684;5.142;2023-04-25T13:57:48;3.65;;;1.30;;
67839;SDS011;54636;51.684;5.142;2023-04-25T14:00:13;3.53;;;0.65;;
67839;SDS011;54636;51.684;5.142;2023-04-25T14:02:39;6.35;;;1.13;;
67839;SDS011;54636;51.684;5.142;2023-04-25T14:05:05;8.18;;;1.00;;
67839;SDS011;54636;51.684;5.142;2023-04-25T14:07:32;2.30;;;1.15;;
67839;SDS011;54636;51.684;5.142;2023-04-25T14:09:58;4.32;;;1.45;;
67839;SDS011;54636;51.684;5.142;2023-04-25T14:12:24;3.38;;;1.15;;
67839;SDS011;54636;51.684;5.142;2023-04-25T14:14:50;3.97;;;1.10;;
67839;SDS011;54636;51.684;5.142;2023-04-25T14:17:15;1.92;;;0.85;;
67839;SDS011;54636;51.684;5.142;2023-04-25T14:19:41;5.72;;;1.52;;
67839;SDS011;54636;51.684;5.142;2023-04-25T14:22:10;7.45;;;1.52;;
67839;SDS011;54636;51.684;5.142;2023-04-25T14:24:35;3.00;;;1.13;;
67839;SDS011;54636;51.684;5.142;2023-04-25T14:27:01;4.50;;;1.23;;
67839;SDS011;54636;51.684;5.142;2023-04-25T14:29:26;8.73;;;1.48;;
67839;SDS011;54636;51.684;5.142;2023-04-25T14:31:52;5.90;;;1.55;;
67839;SDS011;54636;51.684;5.142;2023-04-25T14:34:18;6.15;;;1.60;;
67839;SDS011;54636;51.684;5.142;2023-04-25T14:36:43;7.72;;;1.60;;
67839;SDS011;54636;51.684;5.142;2023-04-25T14:39:09;15.70;;;1.02;;
67839;SDS011;54636;51.684;5.142;2023-04-25T14:41:35;4.43;;;1.05;;
67839;SDS011;54636;51.684;5.142;2023-04-25T14:44:00;4.18;;;1.17;;
67839;SDS011;54636;51.684;5.142;2023-04-25T14:46:26;3.35;;;1.27;;
67839;SDS011;54636;51.684;5.142;2023-04-25T14:48:51;8.18;;;1.38;;
67839;SDS011;54636;51.684;5.142;2023-04-25T14:51:17;4.47;;;1.15;;
67839;SDS011;54636;51.684;5.142;2023-04-25T14:53:42;3.90;;;1.13;;
67839;SDS011;54636;51.684;5.142;2023-04-25T14:56:08;2.55;;;1.17;;
67839;SDS011;54636;51.684;5.142;2023-04-25T14:58:33;4.72;;;1.45;;